Time,TemperatureF,DewpointF,PressureIn,WindDirection,WindDirectionDegrees,WindSpeedMPH,WindSpeedGustMPH,Humidity,HourlyPrecipIn,Conditions,Clouds,dailyrainin,SoftwareType,DateUTC
2013-02-06 00:04:00,50.4,36.6,30.03,ESE,112,4.0,4.0,59,0.00,,,0.00,VWS V14.01,2013-02-06 08:04:00,
2013-02-06 00:09:00,50.2,36.4,30.03,SE,135,2.7,3.6,59,0.00,,,0.00,VWS V14.01,2013-02-06 08:09:00,
2013-02-06 00:14:00,50.2,36.0,30.03,SSE,158,3.6,3.6,58,0.00,,,0.00,VWS V14.01,2013-02-06 08:14:00,
2013-02-06 00:20:00,50.2,36.4,30.03,SSE,158,2.7,2.7,59,0.00,,,0.00,VWS V14.01,2013-02-06 08:20:00,
2013-02-06 00:25:00,50.2,36.8,30.03,South,180,4.0,4.0,60,0.00,,,0.00,VWS V14.01,2013-02-06 08:25:00,
2013-02-06 00:30:00,50.0,36.7,30.03,ESE,112,5.4,5.4,60,0.00,,,0.00,VWS V14.01,2013-02-06 08:30:00,
2013-02-06 00:35:00,49.8,36.5,30.03,ESE,112,3.1,8.1,60,0.00,,,0.00,VWS V14.01,2013-02-06 08:35:00,
2013-02-06 00:40:00,50.0,36.2,30.03,SSE,158,3.1,5.4,59,0.00,,,0.00,VWS V14.01,2013-02-06 08:40:00,
2013-02-06 00:46:00,50.0,35.4,30.03,WSW,248,4.0,5.4,57,0.00,,,0.00,VWS V14.01,2013-02-06 08:46:00,
2013-02-06 00:51:00,50.2,35.1,30.03,East,90,3.6,5.4,56,0.00,,,0.00,VWS V14.01,2013-02-06 08:51:00,
2013-02-06 00:56:00,50.2,35.1,30.03,ESE,112,3.1,3.6,56,0.00,,,0.00,VWS V14.01,2013-02-06 08:56:00,
2013-02-06 01:01:00,50.2,35.1,30.03,ESE,112,5.4,5.4,56,0.00,,,0.00,VWS V14.01,2013-02-06 09:01:00,
2013-02-06 01:06:00,50.2,35.5,30.03,ENE,68,0.0,0.0,57,0.00,,,0.00,VWS V14.01,2013-02-06 09:06:00,
2013-02-06 01:12:00,50.2,35.5,30.03,ENE,68,0.0,3.1,57,0.00,,,0.00,VWS V14.01,2013-02-06 09:12:00,
2013-02-06 01:17:00,50.0,35.4,30.03,South,180,0.0,3.1,57,0.00,,,0.00,VWS V14.01,2013-02-06 09:17:00,
2013-02-06 01:22:00,50.0,34.9,30.03,ESE,112,3.1,4.0,56,0.00,,,0.00,VWS V14.01,2013-02-06 09:22:00,
2013-02-06 01:27:00,50.0,34.9,30.03,SSW,202,2.7,3.6,56,0.00,,,0.00,VWS V14.01,2013-02-06 09:27:00,
2013-02-06 01:32:00,50.0,35.4,30.00,East,90,4.9,4.9,57,0.00,,,0.00,VWS V14.01,2013-02-06 09:32:00,
2013-02-06 01:37:00,50.0,35.4,30.00,ENE,68,2.7,3.1,57,0.00,,,0.00,VWS V14.01,2013-02-06 09:37:00,
2013-02-06 01:42:00,49.8,35.2,30.03,NE,45,0.0,2.2,57,0.00,,,0.00,VWS V14.01,2013-02-06 09:42:00,
2013-02-06 01:47:00,49.8,35.2,30.03,NNE,22,2.2,2.7,57,0.00,,,0.00,VWS V14.01,2013-02-06 09:47:00,
2013-02-06 01:53:00,49.8,35.2,30.03,ESE,112,0.0,3.1,57,0.00,,,0.00,VWS V14.01,2013-02-06 09:53:00,
2013-02-06 01:58:00,49.5,34.4,30.03,SSE,158,0.0,2.7,56,0.00,,,0.00,VWS V14.01,2013-02-06 09:58:00,
2013-02-06 02:03:00,49.6,35.0,30.03,SE,135,0.0,2.2,57,0.00,,,0.00,VWS V14.01,2013-02-06 10:03:00,
2013-02-06 02:08:00,49.3,35.1,30.03,ESE,112,0.0,2.7,58,0.00,,,0.00,VWS V14.01,2013-02-06 10:08:00,
2013-02-06 02:13:00,49.3,35.6,30.03,SE,135,0.0,4.0,59,0.00,,,0.00,VWS V14.01,2013-02-06 10:13:00,
2013-02-06 02:18:00,49.3,36.0,30.03,East,90,2.7,3.1,60,0.00,,,0.00,VWS V14.01,2013-02-06 10:18:00,
2013-02-06 02:23:00,49.1,35.8,30.03,South,180,2.7,4.0,60,0.00,,,0.00,VWS V14.01,2013-02-06 10:23:00,
2013-02-06 02:29:00,48.9,35.7,30.03,SSE,158,0.0,2.2,60,0.00,,,0.00,VWS V14.01,2013-02-06 10:29:00,
2013-02-06 02:34:00,48.9,35.7,30.03,South,180,0.0,3.6,60,0.00,,,0.00,VWS V14.01,2013-02-06 10:34:00,
2013-02-06 02:39:00,48.9,35.7,30.03,SSE,158,0.0,0.0,60,0.00,,,0.00,VWS V14.01,2013-02-06 10:39:00,
2013-02-06 02:44:00,49.1,35.4,30.00,SSE,158,2.2,2.7,59,0.00,,,0.00,VWS V14.01,2013-02-06 10:44:00,
2013-02-06 02:49:00,49.1,35.0,30.00,ESE,112,0.0,0.0,58,0.00,,,0.00,VWS V14.01,2013-02-06 10:49:00,
2013-02-06 02:54:00,49.1,35.0,30.00,NE,45,0.0,0.0,58,0.00,,,0.00,VWS V14.01,2013-02-06 10:54:00,
2013-02-06 02:59:00,49.1,34.5,30.00,NNW,338,0.0,3.6,57,0.00,,,0.00,VWS V14.01,2013-02-06 10:59:00,
2013-02-06 03:05:00,49.1,34.5,30.00,NNE,22,0.0,0.0,57,0.00,,,0.00,VWS V14.01,2013-02-06 11:05:00,
2013-02-06 03:10:00,48.9,34.4,30.00,NNE,22,0.0,0.0,57,0.00,,,0.00,VWS V14.01,2013-02-06 11:10:00,
2013-02-06 03:15:00,49.1,34.5,30.00,NNE,22,0.0,0.0,57,0.00,,,0.00,VWS V14.01,2013-02-06 11:15:00,
2013-02-06 03:20:00,48.9,33.9,30.00,NNE,22,0.0,0.0,56,0.00,,,0.00,VWS V14.01,2013-02-06 11:20:00,
2013-02-06 03:26:00,49.3,34.3,30.00,NNE,22,2.7,2.7,56,0.00,,,0.00,VWS V14.01,2013-02-06 11:26:00,
2013-02-06 03:31:00,49.1,34.1,30.03,East,90,0.0,0.0,56,0.00,,,0.00,VWS V14.01,2013-02-06 11:31:00,
2013-02-06 03:36:00,49.1,34.1,30.03,NNE,22,0.0,0.0,56,0.00,,,0.00,VWS V14.01,2013-02-06 11:36:00,
2013-02-06 03:41:00,48.9,33.9,30.03,North,0,0.0,0.0,56,0.00,,,0.00,VWS V14.01,2013-02-06 11:41:00,
2013-02-06 03:46:00,48.9,34.8,30.03,NNW,338,0.0,0.0,58,0.00,,,0.00,VWS V14.01,2013-02-06 11:46:00,
2013-02-06 03:52:00,48.7,36.3,30.03,NNW,338,3.1,3.6,62,0.00,,,0.00,VWS V14.01,2013-02-06 11:52:00,
2013-02-06 03:57:00,48.7,36.7,30.03,NNW,338,2.7,3.1,63,0.00,,,0.00,VWS V14.01,2013-02-06 11:57:00,
2013-02-06 04:02:00,48.6,37.3,30.03,NNW,338,2.7,2.7,65,0.00,,,0.00,VWS V14.01,2013-02-06 12:02:00,
2013-02-06 04:07:00,48.6,37.3,30.03,North,0,2.2,3.1,65,0.00,,,0.00,VWS V14.01,2013-02-06 12:07:00,
2013-02-06 04:12:00,48.7,38.3,30.03,North,0,3.6,4.0,67,0.00,,,0.00,VWS V14.01,2013-02-06 12:12:00,
2013-02-06 04:17:00,48.6,38.5,30.00,NE,45,2.2,2.7,68,0.00,,,0.00,VWS V14.01,2013-02-06 12:17:00,
2013-02-06 04:23:00,48.4,38.7,30.00,NE,45,0.0,2.2,69,0.00,,,0.00,VWS V14.01,2013-02-06 12:23:00,
2013-02-06 04:28:00,48.4,38.7,30.03,NNW,338,2.2,2.2,69,0.00,,,0.00,VWS V14.01,2013-02-06 12:28:00,
2013-02-06 04:33:00,48.2,38.5,30.03,NNW,338,2.2,2.7,69,0.00,,,0.00,VWS V14.01,2013-02-06 12:33:00,
2013-02-06 04:38:00,48.2,38.9,30.03,NNW,338,5.4,5.4,70,0.00,,,0.00,VWS V14.01,2013-02-06 12:38:00,
2013-02-06 04:43:00,48.0,39.1,30.03,NNE,22,5.4,5.4,71,0.00,,,0.00,VWS V14.01,2013-02-06 12:43:00,
2013-02-06 04:48:00,47.8,38.9,30.03,North,0,3.1,3.1,71,0.00,,,0.00,VWS V14.01,2013-02-06 12:48:00,
2013-02-06 04:54:00,47.7,38.7,30.03,East,90,2.7,2.7,71,0.00,,,0.00,VWS V14.01,2013-02-06 12:54:00,
2013-02-06 04:59:00,47.7,38.4,30.03,NNW,338,2.7,2.7,70,0.00,,,0.00,VWS V14.01,2013-02-06 12:59:00,
2013-02-06 05:04:00,47.5,38.2,30.03,NNW,338,2.7,3.1,70,0.00,,,0.00,VWS V14.01,2013-02-06 13:04:00,
2013-02-06 05:09:00,47.5,38.2,30.03,North,0,2.7,3.6,70,0.00,,,0.00,VWS V14.01,2013-02-06 13:09:00,
2013-02-06 05:14:00,47.5,38.2,30.03,NNW,338,3.6,4.0,70,0.00,,,0.00,VWS V14.01,2013-02-06 13:14:00,
2013-02-06 05:20:00,47.5,38.2,30.03,North,0,3.6,3.6,70,0.00,,,0.00,VWS V14.01,2013-02-06 13:20:00,
2013-02-06 05:25:00,47.5,38.2,30.03,NNW,338,2.7,2.7,70,0.00,,,0.00,VWS V14.01,2013-02-06 13:25:00,
2013-02-06 05:30:00,47.5,38.2,30.03,NNW,338,3.1,3.6,70,0.00,,,0.00,VWS V14.01,2013-02-06 13:30:00,
2013-02-06 05:35:00,47.3,37.7,30.03,North,0,0.0,2.7,69,0.00,,,0.00,VWS V14.01,2013-02-06 13:35:00,
2013-02-06 05:40:00,47.3,38.0,30.03,North,0,3.1,3.1,70,0.00,,,0.00,VWS V14.01,2013-02-06 13:40:00,
2013-02-06 05:45:00,47.3,38.0,30.03,NNW,338,0.0,0.0,70,0.00,,,0.00,VWS V14.01,2013-02-06 13:45:00,
2013-02-06 05:51:00,47.3,38.0,30.03,North,0,2.7,3.1,70,0.00,,,0.00,VWS V14.01,2013-02-06 13:51:00,
2013-02-06 05:56:00,47.3,38.0,30.03,North,0,0.0,2.2,70,0.00,,,0.00,VWS V14.01,2013-02-06 13:56:00,
2013-02-06 06:01:00,47.3,38.0,30.03,North,0,2.2,3.1,70,0.00,,,0.00,VWS V14.01,2013-02-06 14:01:00,
2013-02-06 06:06:00,47.3,38.0,30.03,North,0,2.7,2.7,70,0.00,,,0.00,VWS V14.01,2013-02-06 14:06:00,
2013-02-06 06:11:00,47.3,38.0,30.03,North,0,2.7,3.6,70,0.00,,,0.00,VWS V14.01,2013-02-06 14:11:00,
2013-02-06 06:16:00,47.5,38.2,30.03,NNW,338,0.0,0.0,70,0.00,,,0.00,VWS V14.01,2013-02-06 14:16:00,
2013-02-06 06:21:00,47.3,38.0,30.03,North,0,0.0,0.0,70,0.00,,,0.00,VWS V14.01,2013-02-06 14:21:00,
2013-02-06 06:27:00,47.5,38.2,30.03,North,0,2.2,3.1,70,0.00,,,0.00,VWS V14.01,2013-02-06 14:27:00,
2013-02-06 06:32:00,47.7,38.4,30.03,NE,45,0.0,2.7,70,0.00,,,0.00,VWS V14.01,2013-02-06 14:32:00,
2013-02-06 06:37:00,47.7,38.4,30.03,NNW,338,2.2,2.7,70,0.00,,,0.00,VWS V14.01,2013-02-06 14:37:00,
2013-02-06 06:42:00,47.7,38.4,30.03,NNE,22,0.0,0.0,70,0.00,,,0.00,VWS V14.01,2013-02-06 14:42:00,
2013-02-06 06:47:00,47.7,38.0,30.03,North,0,2.2,3.1,69,0.00,,,0.00,VWS V14.01,2013-02-06 14:47:00,
2013-02-06 06:53:00,47.5,37.8,30.03,North,0,3.1,3.1,69,0.00,,,0.00,VWS V14.01,2013-02-06 14:53:00,
2013-02-06 06:58:00,47.7,38.4,30.03,NNE,22,3.1,3.6,70,0.00,,,0.00,VWS V14.01,2013-02-06 14:58:00,
2013-02-06 07:03:00,47.5,38.2,30.03,NNE,22,2.7,2.7,70,0.00,,,0.00,VWS V14.01,2013-02-06 15:03:00,
2013-02-06 07:08:00,47.3,38.4,30.03,North,0,3.1,4.9,71,0.00,,,0.00,VWS V14.01,2013-02-06 15:08:00,
2013-02-06 07:13:00,47.1,38.2,30.03,NNW,338,2.7,2.7,71,0.00,,,0.00,VWS V14.01,2013-02-06 15:13:00,
2013-02-06 07:18:00,47.1,38.2,30.03,NNE,22,0.0,2.2,71,0.00,,,0.00,VWS V14.01,2013-02-06 15:18:00,
2013-02-06 07:24:00,46.9,38.4,30.03,NNW,338,3.1,3.1,72,0.00,,,0.00,VWS V14.01,2013-02-06 15:24:00,
2013-02-06 07:29:00,46.9,38.4,30.03,North,0,0.0,2.7,72,0.00,,,0.00,VWS V14.01,2013-02-06 15:29:00,
2013-02-06 07:34:00,47.1,38.9,30.03,North,0,0.0,3.6,73,0.00,,,0.00,VWS V14.01,2013-02-06 15:34:00,
2013-02-06 07:39:00,47.1,38.9,30.03,NNW,338,3.1,3.6,73,0.00,,,0.00,VWS V14.01,2013-02-06 15:39:00,
2013-02-06 07:44:00,47.1,39.3,30.03,North,0,2.7,2.7,74,0.00,,,0.00,VWS V14.01,2013-02-06 15:44:00,
2013-02-06 07:49:00,47.1,39.3,30.03,North,0,3.1,3.1,74,0.00,,,0.00,VWS V14.01,2013-02-06 15:49:00,
2013-02-06 07:55:00,46.9,39.1,30.03,NNW,338,3.1,3.1,74,0.00,,,0.00,VWS V14.01,2013-02-06 15:55:00,
2013-02-06 08:00:00,46.9,39.4,30.06,NNE,22,0.0,3.1,75,0.00,,,0.00,VWS V14.01,2013-02-06 16:00:00,
2013-02-06 08:05:00,47.1,39.6,30.06,NNW,338,3.6,4.0,75,0.00,,,0.00,VWS V14.01,2013-02-06 16:05:00,
2013-02-06 08:10:00,47.3,39.8,30.06,North,0,0.0,0.0,75,0.00,,,0.00,VWS V14.01,2013-02-06 16:10:00,
2013-02-06 08:15:00,47.3,39.5,30.06,NNW,338,0.0,3.1,74,0.00,,,0.00,VWS V14.01,2013-02-06 16:15:00,
2013-02-06 08:21:00,47.3,39.5,30.06,NNE,22,0.0,0.0,74,0.00,,,0.00,VWS V14.01,2013-02-06 16:21:00,
2013-02-06 08:26:00,47.5,39.6,30.06,NNW,338,3.6,3.6,74,0.00,,,0.00,VWS V14.01,2013-02-06 16:26:00,
2013-02-06 08:31:00,47.3,39.5,30.06,NNE,22,4.9,5.4,74,0.00,,,0.00,VWS V14.01,2013-02-06 16:31:00,
2013-02-06 08:36:00,47.3,39.5,30.06,NNE,22,3.1,3.1,74,0.00,,,0.00,VWS V14.01,2013-02-06 16:36:00,
2013-02-06 08:41:00,47.5,39.6,30.06,NNE,22,2.7,2.7,74,0.00,,,0.00,VWS V14.01,2013-02-06 16:41:00,
2013-02-06 08:47:00,47.5,39.3,30.06,NNE,22,4.0,4.0,73,0.00,,,0.00,VWS V14.01,2013-02-06 16:47:00,
2013-02-06 08:52:00,47.7,39.8,30.06,NNW,338,0.0,2.7,74,0.00,,,0.00,VWS V14.01,2013-02-06 16:52:00,
2013-02-06 08:57:00,47.7,39.8,30.06,North,0,0.0,2.7,74,0.00,,,0.00,VWS V14.01,2013-02-06 16:57:00,
2013-02-06 09:02:00,47.8,40.0,30.06,NNW,338,3.1,3.1,74,0.00,,,0.00,VWS V14.01,2013-02-06 17:02:00,
2013-02-06 09:08:00,47.8,39.6,30.06,North,0,4.9,4.9,73,0.00,,,0.00,VWS V14.01,2013-02-06 17:08:00,
2013-02-06 09:13:00,47.8,39.6,30.06,NNW,338,4.0,4.0,73,0.00,,,0.00,VWS V14.01,2013-02-06 17:13:00,
2013-02-06 09:18:00,48.0,39.8,30.06,ESE,112,4.9,4.9,73,0.00,,,0.00,VWS V14.01,2013-02-06 17:18:00,
2013-02-06 09:23:00,48.2,39.6,30.06,North,0,3.6,3.6,72,0.00,,,0.00,VWS V14.01,2013-02-06 17:23:00,
2013-02-06 09:28:00,48.6,39.6,30.06,NNW,338,2.7,3.1,71,0.00,,,0.00,VWS V14.01,2013-02-06 17:28:00,
2013-02-06 09:33:00,48.9,39.6,30.06,NW,315,2.2,2.2,70,0.00,,,0.00,VWS V14.01,2013-02-06 17:33:00,
2013-02-06 09:39:00,48.9,39.2,30.06,ENE,68,0.0,0.0,69,0.00,,,0.00,VWS V14.01,2013-02-06 17:39:00,
2013-02-06 09:44:00,49.1,39.0,30.06,NNW,338,3.1,3.1,68,0.00,,,0.00,VWS V14.01,2013-02-06 17:44:00,
2013-02-06 09:49:00,49.3,39.2,30.06,NW,315,5.4,5.4,68,0.00,,,0.00,VWS V14.01,2013-02-06 17:49:00,
2013-02-06 09:54:00,49.6,39.2,30.06,ENE,68,0.0,0.0,67,0.00,,,0.00,VWS V14.01,2013-02-06 17:54:00,
2013-02-06 09:59:00,50.2,39.3,30.09,ESE,112,0.0,3.1,66,0.00,,,0.00,VWS V14.01,2013-02-06 17:59:00,
2013-02-06 10:04:00,50.4,38.7,30.09,ESE,112,2.2,2.2,64,0.00,,,0.00,VWS V14.01,2013-02-06 18:04:00,
2013-02-06 10:10:00,50.7,38.6,30.09,NNW,338,0.0,2.7,63,0.00,,,0.00,VWS V14.01,2013-02-06 18:10:00,
2013-02-06 10:15:00,51.1,38.5,30.09,NE,45,0.0,2.2,62,0.00,,,0.00,VWS V14.01,2013-02-06 18:15:00,
2013-02-06 10:20:00,51.3,38.3,30.09,WNW,292,2.7,2.7,61,0.00,,,0.00,VWS V14.01,2013-02-06 18:20:00,
2013-02-06 10:25:00,50.7,37.4,30.09,NNW,338,4.0,4.9,60,0.00,,,0.00,VWS V14.01,2013-02-06 18:25:00,
2013-02-06 10:31:00,50.2,36.8,30.09,NNW,338,4.0,5.8,60,0.00,,,0.00,VWS V14.01,2013-02-06 18:31:00,
2013-02-06 10:36:00,50.2,37.3,30.09,NNW,338,4.9,5.4,61,0.00,,,0.00,VWS V14.01,2013-02-06 18:36:00,
2013-02-06 10:41:00,50.0,37.5,30.09,NNW,338,4.0,4.0,62,0.00,,,0.00,VWS V14.01,2013-02-06 18:41:00,
2013-02-06 10:47:00,50.0,37.5,30.09,NNW,338,4.0,4.9,62,0.00,,,0.00,VWS V14.01,2013-02-06 18:47:00,
2013-02-06 10:52:00,50.2,38.1,30.09,NNW,338,3.6,5.4,63,0.00,,,0.00,VWS V14.01,2013-02-06 18:52:00,
2013-02-06 10:57:00,50.0,38.3,30.09,NNW,338,3.6,4.9,64,0.00,,,0.00,VWS V14.01,2013-02-06 18:57:00,
2013-02-06 11:02:00,50.2,38.9,30.09,NNW,338,3.1,3.6,65,0.00,,,0.00,VWS V14.01,2013-02-06 19:02:00,
2013-02-06 11:07:00,50.2,38.9,30.09,North,0,2.7,4.0,65,0.00,,,0.00,VWS V14.01,2013-02-06 19:07:00,
2013-02-06 11:12:00,50.4,39.1,30.09,North,0,5.4,5.4,65,0.00,,,0.00,VWS V14.01,2013-02-06 19:12:00,
2013-02-06 11:18:00,50.0,38.7,30.09,NNW,338,2.7,5.8,65,0.00,,,0.00,VWS V14.01,2013-02-06 19:18:00,
2013-02-06 11:23:00,50.2,38.9,30.09,NNW,338,4.5,4.5,65,0.00,,,0.00,VWS V14.01,2013-02-06 19:23:00,
2013-02-06 11:28:00,50.2,38.9,30.09,NNW,338,3.6,4.0,65,0.00,,,0.00,VWS V14.01,2013-02-06 19:28:00,
2013-02-06 11:33:00,50.4,39.1,30.09,NNW,338,3.1,5.4,65,0.00,,,0.00,VWS V14.01,2013-02-06 19:33:00,
2013-02-06 11:38:00,50.4,38.7,30.09,NNW,338,4.0,4.9,64,0.00,,,0.00,VWS V14.01,2013-02-06 19:38:00,
2013-02-06 11:43:00,50.4,38.7,30.06,NNE,22,3.6,5.4,64,0.00,,,0.00,VWS V14.01,2013-02-06 19:43:00,
2013-02-06 11:49:00,50.5,38.8,30.06,ENE,68,3.6,3.6,64,0.00,,,0.00,VWS V14.01,2013-02-06 19:49:00,
2013-02-06 11:54:00,50.5,38.8,30.06,NNE,22,5.4,5.8,64,0.00,,,0.00,VWS V14.01,2013-02-06 19:54:00,
2013-02-06 11:59:00,50.5,38.8,30.06,NNE,22,4.0,4.0,64,0.00,,,0.00,VWS V14.01,2013-02-06 19:59:00,
2013-02-06 12:05:00,50.9,38.8,30.06,North,0,3.6,3.6,63,0.00,,,0.00,VWS V14.01,2013-02-06 20:05:00,
2013-02-06 12:10:00,51.1,38.5,30.06,NNW,338,4.0,4.5,62,0.00,,,0.00,VWS V14.01,2013-02-06 20:10:00,
2013-02-06 12:15:00,51.4,38.9,30.06,NNE,22,2.7,2.7,62,0.00,,,0.00,VWS V14.01,2013-02-06 20:15:00,
2013-02-06 12:20:00,52.0,38.5,30.06,North,0,2.7,3.1,60,0.00,,,0.00,VWS V14.01,2013-02-06 20:20:00,
2013-02-06 12:25:00,52.5,38.6,30.06,NNW,338,2.7,2.7,59,0.00,,,0.00,VWS V14.01,2013-02-06 20:25:00,
2013-02-06 12:30:00,52.7,37.9,30.06,West,270,3.1,4.0,57,0.00,,,0.00,VWS V14.01,2013-02-06 20:30:00,
2013-02-06 12:36:00,53.4,38.1,30.06,North,0,2.7,3.1,56,0.00,,,0.00,VWS V14.01,2013-02-06 20:36:00,
2013-02-06 12:41:00,54.1,37.9,30.06,NNE,22,3.6,3.6,54,0.00,,,0.00,VWS V14.01,2013-02-06 20:41:00,
2013-02-06 12:46:00,55.8,37.9,30.06,North,0,2.7,2.7,51,0.00,,,0.00,VWS V14.01,2013-02-06 20:46:00,
2013-02-06 12:51:00,56.3,37.9,30.06,ENE,68,0.0,0.0,50,0.00,,,0.00,VWS V14.01,2013-02-06 20:51:00,
2013-02-06 12:57:00,57.4,37.9,30.06,ENE,68,0.0,0.0,48,0.00,,,0.00,VWS V14.01,2013-02-06 20:57:00,
2013-02-06 13:02:00,58.5,37.2,30.06,NNE,22,2.7,2.7,45,0.00,,,0.00,VWS V14.01,2013-02-06 21:02:00,
2013-02-06 13:07:00,58.8,37.0,30.06,WNW,292,2.2,2.2,44,0.00,,,0.00,VWS V14.01,2013-02-06 21:07:00,
2013-02-06 13:12:00,59.5,35.8,30.06,SE,135,2.2,2.7,41,0.00,,,0.00,VWS V14.01,2013-02-06 21:12:00,
2013-02-06 13:17:00,60.1,35.7,30.03,South,180,0.0,0.0,40,0.00,,,0.00,VWS V14.01,2013-02-06 21:17:00,
2013-02-06 13:22:00,59.0,34.1,30.03,North,0,2.7,3.1,39,0.00,,,0.00,VWS V14.01,2013-02-06 21:22:00,
2013-02-06 13:27:00,58.5,34.9,30.03,SSW,202,3.1,4.0,41,0.00,,,0.00,VWS V14.01,2013-02-06 21:27:00,
2013-02-06 13:32:00,59.9,35.5,30.03,SSE,158,2.2,2.2,40,0.00,,,0.00,VWS V14.01,2013-02-06 21:32:00,
2013-02-06 13:37:00,59.2,34.9,30.03,SSW,202,2.2,2.2,40,0.00,,,0.00,VWS V14.01,2013-02-06 21:37:00,
2013-02-06 13:43:00,59.2,34.9,30.03,SSE,158,2.2,3.1,40,0.00,,,0.00,VWS V14.01,2013-02-06 21:43:00,
2013-02-06 13:48:00,58.6,35.6,30.03,ESE,112,2.2,2.2,42,0.00,,,0.00,VWS V14.01,2013-02-06 21:48:00,
2013-02-06 13:53:00,57.4,35.1,30.03,SSW,202,0.0,3.1,43,0.00,,,0.00,VWS V14.01,2013-02-06 21:53:00,
2013-02-06 13:58:00,57.2,34.9,30.03,South,180,3.1,4.0,43,0.00,,,0.00,VWS V14.01,2013-02-06 21:58:00,
2013-02-06 14:03:00,56.8,35.7,30.03,SSE,158,2.7,2.7,45,0.00,,,0.00,VWS V14.01,2013-02-06 22:03:00,
2013-02-06 14:08:00,56.5,36.5,30.03,SSE,158,4.0,4.0,47,0.00,,,0.00,VWS V14.01,2013-02-06 22:08:00,
2013-02-06 14:13:00,56.1,36.7,30.03,South,180,0.0,2.2,48,0.00,,,0.00,VWS V14.01,2013-02-06 22:13:00,
2013-02-06 14:19:00,56.1,37.2,30.03,ESE,112,2.7,4.0,49,0.00,,,0.00,VWS V14.01,2013-02-06 22:19:00,
2013-02-06 14:24:00,55.8,37.4,30.03,SSE,158,2.7,2.7,50,0.00,,,0.00,VWS V14.01,2013-02-06 22:24:00,
2013-02-06 14:29:00,55.8,37.4,30.03,NNW,338,3.1,3.1,50,0.00,,,0.00,VWS V14.01,2013-02-06 22:29:00,
2013-02-06 14:34:00,55.6,37.8,30.03,ESE,112,2.2,3.1,51,0.00,,,0.00,VWS V14.01,2013-02-06 22:34:00,
2013-02-06 14:40:00,55.6,37.8,30.03,NE,45,2.7,3.6,51,0.00,,,0.00,VWS V14.01,2013-02-06 22:40:00,
2013-02-06 14:45:00,55.6,37.8,30.03,SSW,202,2.7,4.0,51,0.00,,,0.00,VWS V14.01,2013-02-06 22:45:00,
2013-02-06 14:50:00,55.4,37.6,30.03,SSW,202,3.1,3.1,51,0.00,,,0.00,VWS V14.01,2013-02-06 22:50:00,
2013-02-06 14:55:00,55.0,38.2,30.03,NNE,22,3.1,5.4,53,0.00,,,0.00,VWS V14.01,2013-02-06 22:55:00,
2013-02-06 15:00:00,54.9,38.1,30.03,ESE,112,3.1,3.1,53,0.00,,,0.00,VWS V14.01,2013-02-06 23:00:00,
2013-02-06 15:05:00,54.7,38.4,30.03,SSW,202,2.7,4.9,54,0.00,,,0.00,VWS V14.01,2013-02-06 23:05:00,
2013-02-06 15:10:00,54.5,38.2,30.03,SSW,202,2.2,3.6,54,0.00,,,0.00,VWS V14.01,2013-02-06 23:10:00,
2013-02-06 15:16:00,54.5,37.7,30.03,East,90,2.2,2.7,53,0.00,,,0.00,VWS V14.01,2013-02-06 23:16:00,
2013-02-06 15:21:00,54.7,37.9,30.03,SW,225,3.6,7.6,53,0.00,,,0.00,VWS V14.01,2013-02-06 23:21:00,
2013-02-06 15:26:00,54.7,37.9,30.03,South,180,2.7,5.4,53,0.00,,,0.00,VWS V14.01,2013-02-06 23:26:00,
2013-02-06 15:31:00,54.5,37.2,30.03,SSE,158,4.0,5.4,52,0.00,,,0.00,VWS V14.01,2013-02-06 23:31:00,
2013-02-06 15:36:00,54.5,37.7,30.03,NNE,22,4.0,4.0,53,0.00,,,0.00,VWS V14.01,2013-02-06 23:36:00,
2013-02-06 15:41:00,54.5,37.2,30.03,NNW,338,3.6,5.8,52,0.00,,,0.00,VWS V14.01,2013-02-06 23:41:00,
2013-02-06 15:46:00,54.5,37.2,30.03,ESE,112,2.7,2.7,52,0.00,,,0.00,VWS V14.01,2013-02-06 23:46:00,
2013-02-06 15:51:00,54.5,37.2,30.03,SSW,202,2.7,5.8,52,0.00,,,0.00,VWS V14.01,2013-02-06 23:51:00,
2013-02-06 15:57:00,54.5,37.2,30.03,NNW,338,2.2,4.0,52,0.00,,,0.00,VWS V14.01,2013-02-06 23:57:00,
2013-02-06 16:02:00,54.5,37.7,30.03,ENE,68,3.1,3.1,53,0.00,,,0.00,VWS V14.01,2013-02-07 00:02:00,
2013-02-06 16:07:00,54.3,37.6,30.03,WSW,248,4.0,4.0,53,0.00,,,0.00,VWS V14.01,2013-02-07 00:07:00,
2013-02-06 16:12:00,54.1,37.9,30.03,SSW,202,4.0,4.0,54,0.00,,,0.00,VWS V14.01,2013-02-07 00:12:00,
2013-02-06 16:17:00,54.0,38.2,30.03,SSW,202,2.7,5.4,55,0.00,,,0.00,VWS V14.01,2013-02-07 00:17:00,
2013-02-06 16:23:00,54.0,38.2,30.03,SSW,202,2.7,6.3,55,0.00,,,0.00,VWS V14.01,2013-02-07 00:23:00,
2013-02-06 16:28:00,53.8,38.0,30.03,SSW,202,4.5,4.5,55,0.00,,,0.00,VWS V14.01,2013-02-07 00:28:00,
2013-02-06 16:33:00,53.4,38.6,30.03,WSW,248,5.4,10.1,57,0.00,,,0.00,VWS V14.01,2013-02-07 00:33:00,
2013-02-06 16:38:00,53.2,38.4,30.03,SSE,158,2.7,4.9,57,0.00,,,0.00,VWS V14.01,2013-02-07 00:38:00,
2013-02-06 16:44:00,53.2,38.4,30.03,SE,135,3.1,5.8,57,0.00,,,0.00,VWS V14.01,2013-02-07 00:44:00,
2013-02-06 16:49:00,53.4,38.6,30.03,ENE,68,2.7,3.6,57,0.00,,,0.00,VWS V14.01,2013-02-07 00:49:00,
2013-02-06 16:54:00,53.6,38.8,30.03,SSE,158,5.4,5.4,57,0.00,,,0.00,VWS V14.01,2013-02-07 00:54:00,
2013-02-06 16:59:00,53.2,38.4,30.03,NE,45,0.0,2.7,57,0.00,,,0.00,VWS V14.01,2013-02-07 00:59:00,
2013-02-06 17:05:00,53.1,38.7,30.03,SSW,202,4.0,4.0,58,0.00,,,0.00,VWS V14.01,2013-02-07 01:05:00,
2013-02-06 17:10:00,52.9,38.5,30.03,SSW,202,3.1,4.0,58,0.00,,,0.00,VWS V14.01,2013-02-07 01:10:00,
2013-02-06 17:15:00,52.9,38.5,30.03,ENE,68,3.1,3.1,58,0.00,,,0.00,VWS V14.01,2013-02-07 01:15:00,
2013-02-06 17:20:00,52.9,38.5,30.03,SW,225,3.6,4.0,58,0.00,,,0.00,VWS V14.01,2013-02-07 01:20:00,
2013-02-06 17:25:00,52.9,39.0,30.03,South,180,3.1,3.1,59,0.00,,,0.00,VWS V14.01,2013-02-07 01:25:00,
2013-02-06 17:30:00,52.7,38.8,30.03,South,180,5.4,5.4,59,0.00,,,0.00,VWS V14.01,2013-02-07 01:30:00,
2013-02-06 17:35:00,52.5,38.6,30.03,NNE,22,3.1,3.1,59,0.00,,,0.00,VWS V14.01,2013-02-07 01:35:00,
2013-02-06 17:41:00,52.3,38.9,30.03,ENE,68,5.4,5.4,60,0.00,,,0.00,VWS V14.01,2013-02-07 01:41:00,
2013-02-06 17:46:00,52.3,38.9,30.03,SSE,158,5.4,5.4,60,0.00,,,0.00,VWS V14.01,2013-02-07 01:46:00,
2013-02-06 17:51:00,52.2,39.1,30.03,NE,45,4.0,4.0,61,0.00,,,0.00,VWS V14.01,2013-02-07 01:51:00,
2013-02-06 17:56:00,52.0,39.4,30.03,East,90,3.1,4.5,62,0.00,,,0.00,VWS V14.01,2013-02-07 01:56:00,
2013-02-06 18:01:00,52.0,39.4,30.03,WNW,292,2.7,4.9,62,0.00,,,0.00,VWS V14.01,2013-02-07 02:01:00,
2013-02-06 18:07:00,51.8,39.6,30.03,NE,45,2.2,4.0,63,0.00,,,0.00,VWS V14.01,2013-02-07 02:07:00,
2013-02-06 18:12:00,51.6,39.5,30.03,NNW,338,3.6,4.0,63,0.00,,,0.00,VWS V14.01,2013-02-07 02:12:00,
2013-02-06 18:17:00,51.6,39.5,30.03,NNE,22,3.1,3.6,63,0.00,,,0.00,VWS V14.01,2013-02-07 02:17:00,
2013-02-06 18:22:00,51.6,39.8,30.03,SSW,202,5.8,5.8,64,0.00,,,0.00,VWS V14.01,2013-02-07 02:22:00,
2013-02-06 18:27:00,51.6,39.8,30.03,ESE,112,3.6,4.0,64,0.00,,,0.00,VWS V14.01,2013-02-07 02:27:00,
2013-02-06 18:32:00,51.6,39.8,30.03,SSE,158,2.7,3.1,64,0.00,,,0.00,VWS V14.01,2013-02-07 02:32:00,
2013-02-06 18:38:00,51.4,39.7,30.03,East,90,2.2,5.4,64,0.00,,,0.00,VWS V14.01,2013-02-07 02:38:00,
2013-02-06 18:43:00,51.3,39.5,30.03,SSW,202,2.7,4.9,64,0.00,,,0.00,VWS V14.01,2013-02-07 02:43:00,
2013-02-06 18:48:00,51.3,39.1,30.03,NNW,338,2.7,4.0,63,0.00,,,0.00,VWS V14.01,2013-02-07 02:48:00,
2013-02-06 18:53:00,51.3,38.7,30.03,South,180,3.6,6.3,62,0.00,,,0.00,VWS V14.01,2013-02-07 02:53:00,
2013-02-06 18:58:00,51.3,38.3,30.03,ENE,68,5.8,5.8,61,0.00,,,0.00,VWS V14.01,2013-02-07 02:58:00,
2013-02-06 19:03:00,51.3,38.3,30.03,East,90,3.1,3.1,61,0.00,,,0.00,VWS V14.01,2013-02-07 03:03:00,
2013-02-06 19:09:00,51.4,39.3,30.03,NNE,22,2.7,4.9,63,0.00,,,0.00,VWS V14.01,2013-02-07 03:09:00,
2013-02-06 19:14:00,51.3,39.9,30.03,ENE,68,2.2,3.1,65,0.00,,,0.00,VWS V14.01,2013-02-07 03:14:00,
2013-02-06 19:19:00,51.1,40.1,30.03,NNE,22,2.2,2.2,66,0.00,,,0.00,VWS V14.01,2013-02-07 03:19:00,
2013-02-06 19:24:00,51.1,40.9,30.03,ENE,68,2.7,2.7,68,0.00,,,0.00,VWS V14.01,2013-02-07 03:24:00,
2013-02-06 19:30:00,50.9,41.1,30.03,NNE,22,2.7,4.0,69,0.00,,,0.00,VWS V14.01,2013-02-07 03:30:00,
2013-02-06 19:35:00,50.9,41.5,30.03,ESE,112,4.9,4.9,70,0.00,,,0.00,VWS V14.01,2013-02-07 03:35:00,
2013-02-06 19:40:00,50.7,41.7,30.03,SW,225,3.1,3.1,71,0.00,,,0.00,VWS V14.01,2013-02-07 03:40:00,
2013-02-06 19:45:00,50.7,41.7,30.03,North,0,2.7,3.1,71,0.00,,,0.00,VWS V14.01,2013-02-07 03:45:00,
2013-02-06 19:50:00,50.5,41.5,30.03,ESE,112,2.7,5.8,71,0.00,,,0.00,VWS V14.01,2013-02-07 03:50:00,
2013-02-06 19:55:00,50.5,41.5,30.03,ENE,68,2.2,3.1,71,0.00,,,0.00,VWS V14.01,2013-02-07 03:55:00,
2013-02-06 20:01:00,50.5,41.5,30.03,North,0,3.1,3.6,71,0.00,,,0.00,VWS V14.01,2013-02-07 04:01:00,
2013-02-06 20:06:00,50.5,41.5,30.03,NE,45,2.2,3.1,71,0.00,,,0.00,VWS V14.01,2013-02-07 04:06:00,
2013-02-06 20:11:00,50.5,41.5,30.03,SE,135,3.6,5.4,71,0.00,,,0.00,VWS V14.01,2013-02-07 04:11:00,
2013-02-06 20:17:00,50.5,41.5,30.03,SE,135,4.9,4.9,71,0.00,,,0.00,VWS V14.01,2013-02-07 04:17:00,
2013-02-06 20:22:00,50.5,41.5,30.03,NNE,22,3.1,7.2,71,0.00,,,0.00,VWS V14.01,2013-02-07 04:22:00,
2013-02-06 20:27:00,50.5,41.9,30.03,SSW,202,2.7,4.0,72,0.00,,,0.00,VWS V14.01,2013-02-07 04:27:00,
2013-02-06 20:32:00,50.5,41.9,30.03,East,90,3.6,3.6,72,0.00,,,0.00,VWS V14.01,2013-02-07 04:32:00,
2013-02-06 20:37:00,50.5,41.9,30.03,SSW,202,4.9,4.9,72,0.00,,,0.00,VWS V14.01,2013-02-07 04:37:00,
2013-02-06 20:42:00,50.4,42.0,30.06,SSW,202,4.0,5.8,73,0.00,,,0.00,VWS V14.01,2013-02-07 04:42:00,
2013-02-06 20:47:00,50.2,41.5,30.06,South,180,4.5,4.5,72,0.00,,,0.00,VWS V14.01,2013-02-07 04:47:00,
2013-02-06 20:52:00,50.2,41.5,30.06,SSE,158,2.7,3.6,72,0.00,,,0.00,VWS V14.01,2013-02-07 04:52:00,
2013-02-06 20:57:00,50.2,41.5,30.06,SSE,158,2.7,5.4,72,0.00,,,0.00,VWS V14.01,2013-02-07 04:57:00,
2013-02-06 21:01:00,50.2,41.2,30.06,NE,45,3.6,3.6,71,0.00,,,0.00,VWS V14.01,2013-02-07 05:01:00,
2013-02-06 21:02:00,50.2,41.2,30.06,NNE,22,3.1,3.1,71,0.00,,,0.00,VWS V14.01,2013-02-07 05:02:00,
2013-02-06 21:07:00,50.2,41.2,30.06,ESE,112,2.7,2.7,71,0.00,,,0.00,VWS V14.01,2013-02-07 05:07:00,
2013-02-06 21:10:00,50.2,41.2,30.06,NE,45,0.0,2.2,71,0.00,,,0.00,VWS V14.01,2013-02-07 05:10:00,
2013-02-06 21:16:00,50.2,41.2,30.06,North,0,2.7,2.7,71,0.00,,,0.00,VWS V14.01,2013-02-07 05:16:00,
2013-02-06 21:21:00,50.2,41.2,30.06,WNW,292,2.2,2.2,71,0.00,,,0.00,VWS V14.01,2013-02-07 05:21:00,
2013-02-06 21:26:00,50.2,41.2,30.06,SSE,158,0.0,0.0,71,0.00,,,0.00,VWS V14.01,2013-02-07 05:26:00,
2013-02-06 21:31:00,50.2,41.2,30.06,SE,135,0.0,2.2,71,0.00,,,0.00,VWS V14.01,2013-02-07 05:31:00,
2013-02-06 21:37:00,50.2,41.2,30.06,South,180,2.7,2.7,71,0.00,,,0.00,VWS V14.01,2013-02-07 05:37:00,
2013-02-06 21:42:00,50.0,41.3,30.06,North,0,2.7,2.7,72,0.00,,,0.00,VWS V14.01,2013-02-07 05:42:00,
2013-02-06 21:47:00,50.0,41.3,30.06,SSW,202,3.1,3.1,72,0.00,,,0.00,VWS V14.01,2013-02-07 05:47:00,
2013-02-06 21:52:00,50.0,41.3,30.06,SSE,158,3.1,3.1,72,0.00,,,0.00,VWS V14.01,2013-02-07 05:52:00,
2013-02-06 21:57:00,49.8,41.2,30.06,ENE,68,3.6,5.8,72,0.00,,,0.00,VWS V14.01,2013-02-07 05:57:00,
2013-02-06 22:03:00,50.0,41.3,30.06,NE,45,3.1,3.6,72,0.00,,,0.00,VWS V14.01,2013-02-07 06:03:00,
2013-02-06 22:08:00,50.0,41.3,30.06,SSE,158,0.0,3.1,72,0.00,,,0.00,VWS V14.01,2013-02-07 06:08:00,
2013-02-06 22:13:00,49.8,41.5,30.06,NNE,22,0.0,0.0,73,0.00,,,0.00,VWS V14.01,2013-02-07 06:13:00,
2013-02-06 22:18:00,49.8,41.5,30.06,WSW,248,3.1,3.1,73,0.00,,,0.00,VWS V14.01,2013-02-07 06:18:00,
2013-02-06 22:23:00,49.8,41.5,30.06,South,180,2.7,2.7,73,0.00,,,0.00,VWS V14.01,2013-02-07 06:23:00,
2013-02-06 22:29:00,50.0,41.7,30.06,SSW,202,3.1,3.1,73,0.00,,,0.00,VWS V14.01,2013-02-07 06:29:00,
2013-02-06 22:34:00,50.2,42.2,30.06,SSE,158,3.1,5.4,74,0.00,,,0.00,VWS V14.01,2013-02-07 06:34:00,
2013-02-06 22:39:00,50.2,42.2,30.06,West,270,4.0,4.0,74,0.00,,,0.00,VWS V14.01,2013-02-07 06:39:00,
2013-02-06 22:44:00,50.2,42.2,30.06,North,0,2.2,4.0,74,0.00,,,0.00,VWS V14.01,2013-02-07 06:44:00,
2013-02-06 22:49:00,50.2,42.2,30.06,SSE,158,2.7,2.7,74,0.00,,,0.00,VWS V14.01,2013-02-07 06:49:00,
2013-02-06 22:55:00,50.0,42.0,30.06,SSW,202,2.2,3.6,74,0.00,,,0.00,VWS V14.01,2013-02-07 06:55:00,
2013-02-06 23:00:00,50.0,42.0,30.06,SSW,202,4.9,4.9,74,0.00,,,0.00,VWS V14.01,2013-02-07 07:00:00,
2013-02-06 23:05:00,50.0,42.0,30.06,SSW,202,3.6,3.6,74,0.00,,,0.00,VWS V14.01,2013-02-07 07:05:00,
2013-02-06 23:10:00,50.0,42.0,30.06,SSW,202,0.0,2.2,74,0.00,,,0.00,VWS V14.01,2013-02-07 07:10:00,
2013-02-06 23:16:00,50.0,42.0,30.06,SSW,202,2.2,3.1,74,0.00,,,0.00,VWS V14.01,2013-02-07 07:16:00,
2013-02-06 23:21:00,50.0,42.0,30.06,SSW,202,0.0,3.6,74,0.00,,,0.00,VWS V14.01,2013-02-07 07:21:00,
2013-02-06 23:26:00,50.0,42.0,30.06,WSW,248,2.7,3.1,74,0.00,,,0.00,VWS V14.01,2013-02-07 07:26:00,
2013-02-06 23:31:00,50.0,42.0,30.06,SW,225,2.2,2.7,74,0.00,,,0.00,VWS V14.01,2013-02-07 07:31:00,
2013-02-06 23:36:00,50.0,42.0,30.06,WNW,292,3.1,3.1,74,0.00,,,0.00,VWS V14.01,2013-02-07 07:36:00,
2013-02-06 23:41:00,50.0,42.0,30.06,SSE,158,3.1,3.1,74,0.00,,,0.00,VWS V14.01,2013-02-07 07:41:00,
2013-02-06 23:47:00,49.8,42.2,30.06,South,180,3.1,3.1,75,0.00,,,0.00,VWS V14.01,2013-02-07 07:47:00,
2013-02-06 23:52:00,49.8,42.2,30.06,SSW,202,0.0,5.4,75,0.00,,,0.00,VWS V14.01,2013-02-07 07:52:00,
2013-02-06 23:57:00,49.8,42.6,30.06,South,180,3.6,3.6,76,0.00,,,0.00,VWS V14.01,2013-02-07 07:57:00,